createdAt,value
2023-04-09T00:00:08.080Z,54.69
2023-04-09T00:01:08.063Z,53.74
2023-04-09T00:02:08.077Z,54.11
2023-04-09T00:03:08.278Z,53.34
2023-04-09T00:04:08.159Z,52.72
2023-04-09T00:05:08.023Z,52.38
2023-04-09T00:06:08.016Z,50.74
2023-04-09T00:07:08.028Z,54.55
2023-04-09T00:08:08.028Z,51.81
2023-04-09T00:09:08.013Z,51.11
2023-04-09T00:10:08.005Z,55.74
2023-04-09T00:11:07.993Z,50.41
2023-04-09T00:12:07.980Z,48.79
2023-04-09T00:13:07.992Z,52.96
2023-04-09T00:14:08.501Z,51.69
2023-04-09T00:15:11.002Z,53.49
2023-04-09T00:16:09.225Z,53.28
2023-04-09T00:17:07.941Z,53.05
2023-04-09T00:18:07.985Z,53.98
2023-04-09T00:19:07.947Z,53.29
2023-04-09T00:20:07.984Z,51.20
2023-04-09T00:21:07.927Z,53.57
2023-04-09T00:22:07.948Z,53.07
2023-04-09T00:23:07.899Z,48.20
2023-04-09T00:24:07.926Z,49.29
2023-04-09T00:25:07.931Z,50.90
2023-04-09T00:26:07.939Z,51.30
2023-04-09T00:27:07.885Z,54.42
2023-04-09T00:28:07.900Z,53.44
2023-04-09T00:29:07.890Z,53.44
2023-04-09T00:30:07.912Z,51.93
2023-04-09T00:31:07.898Z,50.42
2023-04-09T00:32:07.948Z,51.04
2023-04-09T00:33:07.870Z,52.14
2023-04-09T00:34:07.864Z,51.49
2023-04-09T00:35:07.904Z,53.52
2023-04-09T00:36:07.940Z,52.53
2023-04-09T00:37:07.833Z,54.76
2023-04-09T00:38:07.842Z,53.12
2023-04-09T00:39:07.823Z,50.76
2023-04-09T00:40:07.822Z,54.62
2023-04-09T00:41:07.834Z,52.47
2023-04-09T00:42:07.850Z,50.82
2023-04-09T00:43:07.804Z,48.02
2023-04-09T00:44:07.815Z,49.55
2023-04-09T00:45:07.814Z,51.72
2023-04-09T00:46:07.852Z,51.84
2023-04-09T00:47:07.842Z,53.90
2023-04-09T00:48:07.850Z,56.04
2023-04-09T00:49:07.810Z,54.61
2023-04-09T00:50:07.809Z,54.42
2023-04-09T00:51:07.777Z,52.65
2023-04-09T00:52:07.770Z,52.66
2023-04-09T00:53:07.784Z,52.15
2023-04-09T00:54:07.790Z,51.75
2023-04-09T00:55:07.763Z,51.89
2023-04-09T00:56:07.775Z,51.52
2023-04-09T00:57:07.762Z,50.23
2023-04-09T00:58:07.754Z,47.65
2023-04-09T00:59:07.718Z,47.99
2023-04-09T01:00:07.774Z,50.22
2023-04-09T01:01:07.791Z,53.69
2023-04-09T01:02:07.816Z,53.28
2023-04-09T01:03:07.786Z,50.08
2023-04-09T01:04:07.704Z,50.64
2023-04-09T01:05:07.679Z,53.68
2023-04-09T01:06:07.702Z,51.75
2023-04-09T01:07:07.712Z,49.05
2023-04-09T01:08:07.684Z,51.23
2023-04-09T01:09:07.660Z,50.92
2023-04-09T01:10:07.753Z,48.94
2023-04-09T01:11:07.644Z,53.66
2023-04-09T01:12:07.648Z,51.44
2023-04-09T01:13:07.629Z,54.61
2023-04-09T01:14:07.642Z,52.94
2023-04-09T01:15:07.668Z,53.82
2023-04-09T01:16:07.719Z,55.03
2023-04-09T01:17:07.605Z,55.89
2023-04-09T01:18:07.713Z,50.66
2023-04-09T01:19:07.600Z,52.01
2023-04-09T01:20:07.631Z,50.84
2023-04-09T01:21:07.597Z,49.59
2023-04-09T01:22:07.666Z,49.29
2023-04-09T01:23:07.581Z,50.20
2023-04-09T01:24:07.611Z,48.98
2023-04-09T01:25:07.579Z,49.11
2023-04-09T01:26:07.588Z,50.79
2023-04-09T01:27:07.599Z,50.76
2023-04-09T01:28:07.562Z,52.16
2023-04-09T01:29:07.563Z,53.81
2023-04-09T01:30:07.553Z,50.86
2023-04-09T01:31:07.717Z,48.59
2023-04-09T01:32:07.627Z,50.82
2023-04-09T01:33:07.531Z,54.36
2023-04-09T01:34:07.542Z,52.22
2023-04-09T01:35:07.506Z,50.60
2023-04-09T01:36:07.575Z,50.48
2023-04-09T01:37:07.511Z,47.67
2023-04-09T01:38:07.521Z,48.42
2023-04-09T01:39:07.502Z,50.00
2023-04-09T01:40:07.523Z,50.85
2023-04-09T01:41:07.492Z,55.18
2023-04-09T01:42:07.488Z,50.84
2023-04-09T01:43:07.499Z,50.83
2023-04-09T01:44:07.487Z,51.95
2023-04-09T01:45:07.453Z,53.30
2023-04-09T01:46:07.537Z,53.99
2023-04-09T01:47:07.456Z,54.70
2023-04-09T01:48:07.453Z,52.06
2023-04-09T01:49:07.441Z,50.23
2023-04-09T01:50:07.474Z,52.12
2023-04-09T01:51:07.435Z,52.17
2023-04-09T01:52:07.483Z,53.99
2023-04-09T01:53:07.440Z,51.91
2023-04-09T01:54:07.438Z,53.03
2023-04-09T01:55:07.398Z,54.54
2023-04-09T01:56:07.420Z,51.34
2023-04-09T01:57:07.406Z,54.20
2023-04-09T01:58:07.429Z,51.99
2023-04-09T01:59:07.422Z,51.41
2023-04-09T02:00:07.410Z,50.83
2023-04-09T02:01:07.443Z,52.37
2023-04-09T02:02:07.418Z,52.47
2023-04-09T02:03:07.415Z,51.45
2023-04-09T02:04:07.498Z,52.19
2023-04-09T02:05:07.395Z,49.71
2023-04-09T02:06:07.397Z,52.05
2023-04-09T02:07:07.329Z,53.79
2023-04-09T02:08:07.354Z,55.16
2023-04-09T02:09:07.330Z,48.36
2023-04-09T02:10:07.342Z,50.14
2023-04-09T02:11:07.379Z,51.16
2023-04-09T02:12:07.362Z,51.01
2023-04-09T02:13:07.313Z,51.59
2023-04-09T02:14:07.317Z,48.37
2023-04-09T02:15:07.324Z,49.42
2023-04-09T02:16:07.390Z,53.15
2023-04-09T02:17:07.305Z,51.30
2023-04-09T02:18:07.289Z,53.58
2023-04-09T02:19:07.266Z,52.63
2023-04-09T02:20:07.323Z,52.88
2023-04-09T02:21:07.267Z,49.82
2023-04-09T02:22:07.284Z,50.30
2023-04-09T02:23:07.271Z,52.91
2023-04-09T02:24:07.262Z,50.94
2023-04-09T02:25:07.245Z,50.22
2023-04-09T02:26:07.296Z,54.82
2023-04-09T02:27:07.236Z,53.01
2023-04-09T02:28:07.254Z,53.67
2023-04-09T02:29:07.233Z,51.84
2023-04-09T02:30:07.229Z,48.65
2023-04-09T02:31:07.234Z,51.99
2023-04-09T02:32:07.251Z,51.35
2023-04-09T02:33:07.220Z,53.14
2023-04-09T02:34:07.213Z,52.25
2023-04-09T02:35:07.192Z,53.73
2023-04-09T02:36:07.229Z,53.11
2023-04-09T02:37:07.178Z,53.95
2023-04-09T02:38:07.204Z,53.55
2023-04-09T02:39:07.169Z,53.89
2023-04-09T02:40:07.178Z,51.17
2023-04-09T02:41:07.185Z,54.58
2023-04-09T02:42:07.213Z,53.23
2023-04-09T02:43:07.153Z,53.39
2023-04-09T02:44:07.165Z,51.30
2023-04-09T02:45:07.182Z,54.55
2023-04-09T02:46:07.156Z,51.19
2023-04-09T02:47:07.174Z,51.52
2023-04-09T02:48:07.142Z,53.89
2023-04-09T02:49:07.125Z,54.59
2023-04-09T02:50:07.126Z,57.29
2023-04-09T02:51:07.136Z,53.65
2023-04-09T02:52:07.148Z,50.65
2023-04-09T02:53:07.126Z,50.23
2023-04-09T02:54:07.104Z,53.15
2023-04-09T02:55:07.095Z,50.07
2023-04-09T02:56:07.089Z,49.92
2023-04-09T02:57:07.079Z,50.83
2023-04-09T02:58:07.074Z,51.85
2023-04-09T02:59:07.094Z,50.85
2023-04-09T03:00:07.070Z,53.15
2023-04-09T03:01:07.047Z,51.58
2023-04-09T03:02:07.197Z,49.93
2023-04-09T03:03:07.157Z,48.87
2023-04-09T03:04:07.153Z,51.51
2023-04-09T03:05:07.042Z,51.61
2023-04-09T03:06:07.031Z,55.71
2023-04-09T03:07:07.029Z,54.46
2023-04-09T03:08:07.042Z,51.86
2023-04-09T03:09:06.997Z,54.45
2023-04-09T03:10:07.015Z,54.05
2023-04-09T03:11:06.992Z,53.33
2023-04-09T03:12:07.013Z,53.05
2023-04-09T03:13:07.007Z,53.47
2023-04-09T03:14:06.980Z,50.05
2023-04-09T03:15:06.976Z,50.15
2023-04-09T03:16:07.236Z,54.47
2023-04-09T03:17:06.961Z,53.49
2023-04-09T03:18:06.994Z,53.29
2023-04-09T03:19:06.962Z,55.62
2023-04-09T03:20:06.969Z,56.76
2023-04-09T03:21:06.934Z,55.69
2023-04-09T03:22:06.945Z,54.05
2023-04-09T03:23:06.944Z,54.64
2023-04-09T03:24:06.934Z,49.82
2023-04-09T03:25:06.914Z,51.24
2023-04-09T03:26:06.929Z,53.99
2023-04-09T03:27:06.942Z,53.36
2023-04-09T03:28:06.909Z,55.27
2023-04-09T03:29:06.911Z,55.25
2023-04-09T03:30:06.927Z,55.68
2023-04-09T03:31:06.909Z,51.55
2023-04-09T03:32:06.887Z,53.41
2023-04-09T03:33:06.864Z,52.10
2023-04-09T03:34:06.889Z,52.50
2023-04-09T03:35:06.865Z,55.38
2023-04-09T03:36:06.945Z,55.27
2023-04-09T03:37:06.852Z,55.65
2023-04-09T03:38:06.858Z,55.19
2023-04-09T03:39:06.849Z,53.84
2023-04-09T03:40:06.853Z,53.98
2023-04-09T03:41:06.822Z,53.85
2023-04-09T03:42:06.855Z,55.17
2023-04-09T03:43:06.822Z,53.56
2023-04-09T03:44:06.827Z,55.04
2023-04-09T03:45:06.845Z,54.27
2023-04-09T03:46:06.833Z,54.58
2023-04-09T03:47:06.783Z,56.23
2023-04-09T03:48:06.833Z,55.72
2023-04-09T03:49:06.786Z,56.27
2023-04-09T03:50:06.789Z,55.24
2023-04-09T03:51:06.786Z,55.28
2023-04-09T03:52:06.786Z,55.35
2023-04-09T03:53:06.768Z,58.68
2023-04-09T03:54:06.799Z,57.52
2023-04-09T03:55:06.744Z,57.84
2023-04-09T03:56:06.809Z,56.62
2023-04-09T03:57:06.790Z,59.48
2023-04-09T03:58:06.769Z,60.46
2023-04-09T03:59:06.740Z,59.40
2023-04-09T04:00:06.763Z,60.32
2023-04-09T04:01:06.714Z,59.91
2023-04-09T04:02:06.794Z,60.42
2023-04-09T04:03:06.857Z,59.70
2023-04-09T04:04:06.790Z,59.45
2023-04-09T04:05:06.713Z,59.38
2023-04-09T04:06:06.723Z,57.82
2023-04-09T04:07:06.684Z,58.65
2023-04-09T04:08:06.682Z,59.74
2023-04-09T04:09:06.677Z,61.25
2023-04-09T04:10:06.721Z,60.59
2023-04-09T04:11:06.664Z,60.51
2023-04-09T04:12:06.660Z,61.33
2023-04-09T04:13:06.668Z,60.41
2023-04-09T04:14:06.670Z,57.70
2023-04-09T04:15:06.640Z,55.74
2023-04-09T04:16:06.678Z,56.20
2023-04-09T04:17:06.646Z,57.81
2023-04-09T04:18:06.642Z,57.70
2023-04-09T04:19:06.638Z,57.84
2023-04-09T04:20:06.629Z,57.63
2023-04-09T04:21:06.637Z,57.06
2023-04-09T04:22:06.604Z,56.78
2023-04-09T04:23:06.599Z,56.80
2023-04-09T04:24:06.585Z,56.10
2023-04-09T04:25:06.598Z,56.27
2023-04-09T04:26:06.601Z,55.88
2023-04-09T04:27:06.594Z,56.08
2023-04-09T04:28:06.571Z,55.67
2023-04-09T04:29:06.577Z,54.79
2023-04-09T04:30:06.603Z,56.99
2023-04-09T04:31:06.538Z,53.16
2023-04-09T04:32:06.669Z,55.60
2023-04-09T04:33:06.538Z,56.23
2023-04-09T04:34:06.546Z,56.11
2023-04-09T04:35:06.525Z,54.93
2023-04-09T04:36:06.541Z,54.97
2023-04-09T04:37:06.537Z,54.57
2023-04-09T04:38:06.540Z,53.38
2023-04-09T04:39:06.512Z,53.62
2023-04-09T04:40:06.514Z,55.46
2023-04-09T04:41:06.484Z,54.09
2023-04-09T04:42:06.513Z,55.49
2023-04-09T04:43:06.475Z,54.79
2023-04-09T04:44:06.502Z,54.38
2023-04-09T04:45:06.474Z,55.10
2023-04-09T04:46:06.528Z,54.81
2023-04-09T04:47:06.462Z,56.44
2023-04-09T04:48:06.463Z,56.72
2023-04-09T04:49:06.468Z,56.21
2023-04-09T04:50:06.460Z,56.77
2023-04-09T04:51:06.477Z,57.04
2023-04-09T04:52:06.442Z,57.43
2023-04-09T04:53:06.439Z,56.52
2023-04-09T04:54:06.443Z,56.29
2023-04-09T04:55:06.435Z,57.32
2023-04-09T04:56:06.438Z,55.91
2023-04-09T04:57:06.456Z,57.69
2023-04-09T04:58:06.416Z,55.22
2023-04-09T04:59:06.394Z,55.30
2023-04-09T05:00:06.432Z,56.94
2023-04-09T05:01:06.433Z,55.50
2023-04-09T05:02:06.440Z,55.78
2023-04-09T05:03:06.586Z,53.99
2023-04-09T05:04:06.395Z,55.83
2023-04-09T05:05:06.368Z,57.58
2023-04-09T05:06:06.378Z,56.56
2023-04-09T05:07:06.368Z,56.87
2023-04-09T05:08:06.413Z,55.11
2023-04-09T05:09:06.377Z,55.22
2023-04-09T05:10:06.361Z,57.26
2023-04-09T05:11:06.334Z,54.64
2023-04-09T05:12:06.329Z,56.25
2023-04-09T05:13:06.327Z,56.86
2023-04-09T05:14:06.340Z,58.63
2023-04-09T05:15:06.331Z,57.43
2023-04-09T05:16:06.313Z,55.16
2023-04-09T05:17:06.330Z,55.67
2023-04-09T05:18:06.301Z,57.18
2023-04-09T05:19:06.286Z,56.23
2023-04-09T05:20:06.324Z,57.39
2023-04-09T05:21:06.349Z,54.11
2023-04-09T05:22:06.283Z,56.41
2023-04-09T05:23:06.273Z,59.11
2023-04-09T05:24:06.510Z,57.22
2023-04-09T05:25:06.246Z,57.60
2023-04-09T05:26:06.255Z,55.99
2023-04-09T05:27:06.264Z,55.39
2023-04-09T05:28:06.240Z,57.46
2023-04-09T05:29:06.218Z,55.82
2023-04-09T05:30:06.259Z,56.91
2023-04-09T05:31:06.241Z,57.28
2023-04-09T05:32:06.215Z,57.74
2023-04-09T05:33:06.238Z,54.83
2023-04-09T05:34:06.250Z,58.87
2023-04-09T05:35:06.190Z,59.72
2023-04-09T05:36:06.263Z,57.07
2023-04-09T05:37:06.210Z,60.26
2023-04-09T05:38:06.191Z,59.29
2023-04-09T05:39:06.204Z,56.76
2023-04-09T05:40:06.219Z,58.01
2023-04-09T05:41:06.146Z,58.43
2023-04-09T05:42:06.172Z,56.49
2023-04-09T05:43:06.186Z,56.82
2023-04-09T05:44:06.172Z,57.96
2023-04-09T05:45:06.151Z,56.78
2023-04-09T05:46:06.218Z,55.90
2023-04-09T05:47:06.144Z,54.89
2023-04-09T05:48:06.128Z,59.04
2023-04-09T05:49:06.147Z,56.79
2023-04-09T05:50:06.183Z,59.32
2023-04-09T05:51:06.111Z,58.52
2023-04-09T05:52:06.114Z,59.29
2023-04-09T05:53:06.090Z,57.68
2023-04-09T05:54:06.103Z,60.74
2023-04-09T05:55:06.097Z,62.67
2023-04-09T05:56:06.107Z,64.21
2023-04-09T05:57:06.078Z,56.18
2023-04-09T05:58:06.109Z,60.78
2023-04-09T05:59:06.058Z,56.32
2023-04-09T06:00:06.068Z,56.61
2023-04-09T06:01:06.060Z,59.60
2023-04-09T06:02:06.138Z,58.41
2023-04-09T06:03:06.127Z,55.46
2023-04-09T06:04:06.264Z,56.46
2023-04-09T06:05:06.028Z,57.19
2023-04-09T06:06:06.053Z,59.08
2023-04-09T06:07:06.029Z,57.96
2023-04-09T06:08:06.053Z,58.33
2023-04-09T06:09:06.009Z,60.20
2023-04-09T06:10:06.063Z,57.60
2023-04-09T06:11:05.995Z,55.84
2023-04-09T06:12:05.999Z,57.73
2023-04-09T06:13:05.985Z,56.96
2023-04-09T06:14:05.979Z,56.22
2023-04-09T06:15:06.014Z,59.07
2023-04-09T06:16:06.030Z,57.92
2023-04-09T06:17:05.991Z,57.44
2023-04-09T06:18:06.161Z,59.19
2023-04-09T06:19:05.973Z,58.66
2023-04-09T06:20:05.964Z,56.05
2023-04-09T06:21:05.960Z,56.38
2023-04-09T06:22:05.956Z,59.68
2023-04-09T06:23:05.947Z,58.19
2023-04-09T06:24:05.932Z,60.22
2023-04-09T06:25:05.957Z,60.29
2023-04-09T06:26:05.923Z,63.96
2023-04-09T06:27:05.930Z,64.76
2023-04-09T06:28:06.158Z,58.67
2023-04-09T06:29:05.934Z,60.07
2023-04-09T06:30:05.923Z,57.52
2023-04-09T06:31:05.892Z,57.20
2023-04-09T06:32:05.917Z,57.14
2023-04-09T06:33:05.936Z,57.85
2023-04-09T06:34:05.902Z,57.27
2023-04-09T06:35:05.867Z,58.75
2023-04-09T06:36:05.979Z,57.03
2023-04-09T06:37:05.875Z,58.76
2023-04-09T06:38:06.573Z,59.30
2023-04-09T06:39:05.866Z,57.48
2023-04-09T06:40:05.892Z,59.00
2023-04-09T06:41:05.842Z,58.36
2023-04-09T06:42:05.839Z,59.46
2023-04-09T06:43:05.841Z,58.79
2023-04-09T06:44:05.845Z,59.02
2023-04-09T06:45:05.854Z,58.72
2023-04-09T06:46:05.859Z,58.01
2023-04-09T06:47:05.810Z,59.87
2023-04-09T06:48:05.941Z,58.18
2023-04-09T06:49:05.784Z,58.00
2023-04-09T06:50:05.802Z,58.52
2023-04-09T06:51:05.805Z,57.37
2023-04-09T06:52:05.805Z,59.36
2023-04-09T06:53:05.773Z,58.87
2023-04-09T06:54:05.789Z,59.76
2023-04-09T06:55:05.763Z,59.29
2023-04-09T06:56:05.820Z,59.66
2023-04-09T06:57:05.753Z,60.34
2023-04-09T06:58:05.791Z,59.58
2023-04-09T06:59:05.738Z,59.33
2023-04-09T07:00:05.734Z,58.25
2023-04-09T07:01:05.727Z,61.41
2023-04-09T07:02:05.766Z,56.24
2023-04-09T07:03:05.888Z,56.76
2023-04-09T07:04:05.870Z,59.33
2023-04-09T07:05:05.689Z,60.85
2023-04-09T07:06:05.702Z,63.25
2023-04-09T07:07:05.679Z,65.49
2023-04-09T07:08:05.749Z,61.26
2023-04-09T07:09:05.687Z,57.13
2023-04-09T07:10:05.669Z,59.15
2023-04-09T07:11:05.660Z,56.54
2023-04-09T07:12:05.665Z,60.51
2023-04-09T07:13:05.649Z,59.30
2023-04-09T07:14:05.664Z,57.84
2023-04-09T07:15:05.667Z,59.30
2023-04-09T07:16:05.690Z,58.10
2023-04-09T07:17:05.639Z,57.35
2023-04-09T07:18:05.653Z,61.19
2023-04-09T07:19:05.607Z,61.18
2023-04-09T07:20:05.646Z,59.29
2023-04-09T07:21:05.612Z,59.38
2023-04-09T07:22:05.610Z,60.62
2023-04-09T07:23:05.580Z,58.07
2023-04-09T07:24:05.623Z,61.08
2023-04-09T07:25:05.576Z,58.55
2023-04-09T07:26:05.608Z,60.50
2023-04-09T07:27:05.683Z,59.05
2023-04-09T07:28:05.603Z,60.48
2023-04-09T07:29:05.544Z,57.96
2023-04-09T07:30:05.580Z,59.01
2023-04-09T07:31:05.601Z,58.72
2023-04-09T07:32:05.554Z,59.39
2023-04-09T07:33:05.567Z,61.14
2023-04-09T07:34:05.547Z,60.18
2023-04-09T07:35:05.507Z,61.10
2023-04-09T07:36:05.576Z,60.90
2023-04-09T07:37:05.534Z,60.48
2023-04-09T07:38:05.522Z,59.53
2023-04-09T07:39:05.485Z,60.02
2023-04-09T07:40:05.507Z,59.91
2023-04-09T07:41:05.774Z,58.55
2023-04-09T07:42:05.477Z,59.72
2023-04-09T07:43:05.458Z,60.12
2023-04-09T07:44:05.470Z,59.15
2023-04-09T07:45:05.465Z,58.41
2023-04-09T07:46:05.463Z,60.24
2023-04-09T07:47:05.541Z,60.22
2023-04-09T07:48:05.474Z,60.09
2023-04-09T07:49:05.446Z,60.19
2023-04-09T07:50:05.454Z,58.94
2023-04-09T07:51:05.407Z,60.27
2023-04-09T07:52:05.445Z,60.19
2023-04-09T07:53:05.409Z,59.90
2023-04-09T07:54:05.428Z,59.36
2023-04-09T07:55:05.410Z,59.63
2023-04-09T07:56:05.412Z,60.01
2023-04-09T07:57:05.396Z,58.24
2023-04-09T07:58:05.434Z,58.70
2023-04-09T07:59:05.382Z,60.32
2023-04-09T08:00:05.406Z,60.82
2023-04-09T08:01:05.366Z,59.73
2023-04-09T08:02:05.431Z,59.24
2023-04-09T08:03:05.656Z,59.91
2023-04-09T08:04:05.561Z,60.77
2023-04-09T08:05:05.406Z,62.13
2023-04-09T08:06:05.372Z,60.99
2023-04-09T08:07:05.385Z,61.60
2023-04-09T08:08:05.325Z,61.89
2023-04-09T08:09:05.315Z,60.22
2023-04-09T08:10:05.310Z,59.59
2023-04-09T08:11:05.326Z,62.11
2023-04-09T08:12:05.324Z,60.88
2023-04-09T08:13:05.308Z,59.95
2023-04-09T08:14:05.322Z,59.53
2023-04-09T08:15:05.290Z,59.95
2023-04-09T08:16:05.332Z,60.13
2023-04-09T08:17:05.286Z,61.63
2023-04-09T08:18:05.309Z,59.22
2023-04-09T08:19:05.268Z,60.20
2023-04-09T08:20:05.276Z,59.01
2023-04-09T08:21:05.253Z,60.04
2023-04-09T08:22:05.246Z,60.60
2023-04-09T08:23:05.276Z,59.83
2023-04-09T08:24:05.240Z,58.57
2023-04-09T08:25:05.217Z,58.37
2023-04-09T08:26:05.233Z,58.91
2023-04-09T08:27:05.228Z,59.06
2023-04-09T08:28:05.199Z,61.29
2023-04-09T08:29:05.202Z,59.11
2023-04-09T08:30:05.195Z,60.42
2023-04-09T08:31:05.154Z,59.75
2023-04-09T08:32:05.203Z,59.21
2023-04-09T08:33:05.199Z,59.64
2023-04-09T08:34:05.158Z,61.00
2023-04-09T08:35:05.132Z,62.25
2023-04-09T08:36:05.181Z,61.90
2023-04-09T08:37:05.114Z,60.35
2023-04-09T08:38:05.120Z,58.85
2023-04-09T08:39:05.111Z,60.51
2023-04-09T08:40:05.117Z,61.42
2023-04-09T08:41:05.080Z,61.18
2023-04-09T08:42:05.119Z,61.18
2023-04-09T08:43:05.091Z,61.07
2023-04-09T08:44:05.082Z,61.17
2023-04-09T08:45:05.056Z,61.38
2023-04-09T08:46:05.110Z,62.80
2023-04-09T08:47:05.060Z,60.87
2023-04-09T08:48:05.161Z,61.96
2023-04-09T08:49:05.046Z,61.51
2023-04-09T08:50:05.048Z,60.86
2023-04-09T08:51:05.016Z,60.32
2023-04-09T08:52:05.699Z,62.54
2023-04-09T08:53:05.016Z,62.08
2023-04-09T08:54:05.406Z,61.37
2023-04-09T08:55:05.030Z,60.67
2023-04-09T08:56:05.037Z,59.39
2023-04-09T08:57:05.273Z,61.57
2023-04-09T08:58:05.022Z,60.76
2023-04-09T08:59:04.965Z,62.09
2023-04-09T09:00:04.961Z,61.94
2023-04-09T09:01:04.983Z,61.82
2023-04-09T09:02:05.036Z,58.99
2023-04-09T09:03:05.651Z,59.52
2023-04-09T09:04:05.032Z,60.25
2023-04-09T09:05:04.923Z,59.21
2023-04-09T09:06:04.919Z,61.03
2023-04-09T09:07:04.916Z,60.13
2023-04-09T09:08:04.909Z,59.23
2023-04-09T09:09:04.949Z,59.55
2023-04-09T09:10:04.886Z,58.79
2023-04-09T09:11:04.894Z,61.40
2023-04-09T09:12:04.859Z,59.56
2023-04-09T09:13:04.869Z,58.53
2023-04-09T09:14:04.852Z,58.83
2023-04-09T09:15:04.895Z,59.50
2023-04-09T09:16:04.836Z,59.36
2023-04-09T09:17:04.923Z,58.72
2023-04-09T09:18:04.874Z,60.36
2023-04-09T09:19:04.818Z,58.91
2023-04-09T09:20:04.801Z,59.35
2023-04-09T09:21:04.766Z,61.13
2023-04-09T09:22:04.789Z,60.96
2023-04-09T09:23:04.793Z,59.81
2023-04-09T09:24:04.807Z,57.61
2023-04-09T09:25:04.766Z,59.52
2023-04-09T09:26:04.751Z,56.40
2023-04-09T09:27:04.718Z,59.48
2023-04-09T09:28:04.736Z,60.14
2023-04-09T09:29:04.737Z,58.94
2023-04-09T09:30:04.725Z,59.04
2023-04-09T09:31:04.751Z,59.21
2023-04-09T09:32:04.696Z,60.82
2023-04-09T09:33:04.692Z,60.43
2023-04-09T09:34:04.726Z,58.97
2023-04-09T09:35:04.666Z,58.70
2023-04-09T09:36:04.723Z,60.26
2023-04-09T09:37:04.652Z,61.86
2023-04-09T09:38:04.680Z,61.58
2023-04-09T09:39:04.640Z,59.95
2023-04-09T09:40:04.648Z,59.68
2023-04-09T09:41:04.602Z,60.66
2023-04-09T09:42:04.616Z,60.26
2023-04-09T09:43:04.591Z,60.76
2023-04-09T09:44:04.591Z,61.03
2023-04-09T09:45:04.609Z,62.27
2023-04-09T09:46:04.605Z,60.83
2023-04-09T09:47:04.598Z,59.98
2023-04-09T09:48:04.638Z,59.68
2023-04-09T09:49:04.544Z,62.26
2023-04-09T09:50:04.555Z,59.36
2023-04-09T09:51:04.546Z,61.10
2023-04-09T09:52:04.534Z,60.32
2023-04-09T09:53:04.524Z,60.17
2023-04-09T09:54:04.521Z,60.23
2023-04-09T09:55:04.492Z,60.85
2023-04-09T09:56:04.526Z,59.18
2023-04-09T09:57:04.485Z,59.79
2023-04-09T09:58:04.495Z,60.41
2023-04-09T09:59:04.451Z,60.00
2023-04-09T10:00:04.506Z,62.15
2023-04-09T10:01:04.537Z,59.45
2023-04-09T10:02:04.556Z,60.16
2023-04-09T10:03:04.496Z,60.03
2023-04-09T10:04:04.451Z,58.07
2023-04-09T10:05:04.443Z,58.62
2023-04-09T10:06:04.431Z,58.93
2023-04-09T10:07:04.412Z,62.52
2023-04-09T10:08:04.442Z,60.17
2023-04-09T10:09:04.390Z,60.53
2023-04-09T10:10:04.397Z,59.24
2023-04-09T10:11:04.351Z,59.83
2023-04-09T10:12:04.454Z,59.56
2023-04-09T10:13:04.348Z,59.30
2023-04-09T10:14:04.351Z,59.31
2023-04-09T10:15:04.331Z,59.23
2023-04-09T10:16:04.393Z,58.91
2023-04-09T10:17:04.381Z,59.83
2023-04-09T10:18:04.346Z,59.55
2023-04-09T10:19:04.379Z,59.79
2023-04-09T10:20:04.293Z,61.44
2023-04-09T10:21:04.453Z,58.54
2023-04-09T10:22:04.286Z,59.85
2023-04-09T10:23:04.271Z,60.14
2023-04-09T10:24:04.261Z,58.83
2023-04-09T10:25:04.269Z,58.44
2023-04-09T10:26:04.257Z,58.99
2023-04-09T10:27:04.223Z,60.01
2023-04-09T10:28:04.232Z,58.88
2023-04-09T10:29:04.240Z,58.87
2023-04-09T10:30:04.212Z,58.09
2023-04-09T10:31:04.229Z,60.89
2023-04-09T10:32:04.213Z,62.00
2023-04-09T10:33:04.243Z,59.91
2023-04-09T10:34:04.192Z,60.16
2023-04-09T10:35:04.277Z,59.82
2023-04-09T10:36:04.179Z,59.55
2023-04-09T10:37:04.172Z,59.33
2023-04-09T10:38:04.140Z,58.90
2023-04-09T10:39:04.136Z,58.34
2023-04-09T10:40:04.164Z,59.72
2023-04-09T10:41:04.132Z,61.43
2023-04-09T10:42:04.130Z,60.67
2023-04-09T10:43:04.181Z,61.88
2023-04-09T10:44:04.104Z,60.96
2023-04-09T10:45:04.071Z,57.61
2023-04-09T10:46:04.166Z,58.50
2023-04-09T10:47:04.055Z,59.94
2023-04-09T10:48:04.076Z,58.87
2023-04-09T10:49:04.061Z,62.05
2023-04-09T10:50:04.041Z,61.22
2023-04-09T10:51:04.047Z,60.08
2023-04-09T10:52:04.029Z,59.91
2023-04-09T10:53:04.088Z,59.41
2023-04-09T10:54:04.023Z,58.56
2023-04-09T10:55:03.981Z,59.07
2023-04-09T10:56:04.007Z,58.76
2023-04-09T10:57:03.989Z,59.34
2023-04-09T10:58:03.975Z,59.75
2023-04-09T10:59:03.989Z,58.92
2023-04-09T11:00:03.996Z,60.33
2023-04-09T11:01:03.929Z,59.27
2023-04-09T11:02:03.973Z,60.32
2023-04-09T11:03:04.168Z,59.06
2023-04-09T11:04:03.946Z,59.81
2023-04-09T11:05:03.921Z,60.37
2023-04-09T11:06:03.904Z,59.84
2023-04-09T11:07:03.874Z,58.52
2023-04-09T11:08:03.888Z,57.60
2023-04-09T11:09:03.889Z,59.14
2023-04-09T11:10:03.893Z,62.04
2023-04-09T11:11:03.883Z,60.63
2023-04-09T11:12:03.860Z,59.60
2023-04-09T11:13:03.870Z,59.78
2023-04-09T11:14:03.842Z,60.00
2023-04-09T11:15:03.817Z,59.64
2023-04-09T11:16:03.909Z,59.88
2023-04-09T11:17:03.793Z,59.58
2023-04-09T11:18:03.860Z,59.34
2023-04-09T11:19:03.862Z,58.92
2023-04-09T11:20:03.821Z,58.15
2023-04-09T11:21:03.795Z,56.86
2023-04-09T11:22:03.760Z,57.92
2023-04-09T11:23:03.762Z,58.70
2023-04-09T11:24:03.744Z,59.28
2023-04-09T11:25:03.711Z,60.55
2023-04-09T11:26:03.739Z,60.38
2023-04-09T11:27:03.744Z,59.64
2023-04-09T11:28:03.744Z,59.48
2023-04-09T11:29:03.734Z,57.96
2023-04-09T11:30:03.706Z,58.62
2023-04-09T11:31:03.736Z,59.54
2023-04-09T11:32:03.678Z,60.14
2023-04-09T11:33:03.734Z,60.15
2023-04-09T11:34:03.665Z,58.95
2023-04-09T11:35:03.627Z,59.02
2023-04-09T11:36:03.662Z,58.90
2023-04-09T11:37:03.655Z,59.74
2023-04-09T11:38:03.631Z,56.48
2023-04-09T11:39:03.605Z,58.06
2023-04-09T11:40:03.618Z,58.08
2023-04-09T11:41:03.591Z,57.37
2023-04-09T11:42:03.601Z,53.81
2023-04-09T11:43:03.652Z,58.41
2023-04-09T11:44:03.618Z,58.29
2023-04-09T11:45:03.556Z,59.48
2023-04-09T11:46:03.572Z,58.49
2023-04-09T11:47:03.632Z,57.64
2023-04-09T11:48:03.567Z,59.06
2023-04-09T11:49:03.568Z,57.71
2023-04-09T11:50:03.532Z,57.71
2023-04-09T11:51:03.520Z,58.15
2023-04-09T11:52:03.505Z,59.33
2023-04-09T11:53:03.549Z,58.00
2023-04-09T11:54:03.569Z,58.55
2023-04-09T11:55:03.471Z,58.62
2023-04-09T11:56:03.527Z,58.49
2023-04-09T11:57:03.520Z,58.14
2023-04-09T11:58:03.493Z,57.09
2023-04-09T11:59:03.425Z,56.13
2023-04-09T12:00:05.192Z,57.01
2023-04-09T12:01:03.431Z,56.69
2023-04-09T12:02:03.563Z,56.38
2023-04-09T12:03:03.798Z,56.82
2023-04-09T12:04:03.694Z,57.14
2023-04-09T12:05:03.438Z,57.05
2023-04-09T12:06:03.812Z,56.58
2023-04-09T12:07:03.400Z,56.54
2023-04-09T12:08:03.405Z,56.18
2023-04-09T12:09:03.377Z,56.29
2023-04-09T12:10:03.396Z,55.72
2023-04-09T12:11:03.378Z,55.16
2023-04-09T12:12:03.358Z,55.36
2023-04-09T12:13:03.361Z,55.15
2023-04-09T12:14:03.344Z,54.90
2023-04-09T12:15:03.301Z,55.27
2023-04-09T12:16:03.447Z,55.85
2023-04-09T12:17:03.463Z,54.80
2023-04-09T12:18:03.406Z,56.86
2023-04-09T12:19:03.289Z,55.33
2023-04-09T12:20:03.308Z,54.61
2023-04-09T12:21:03.274Z,54.99
2023-04-09T12:22:03.254Z,56.23
2023-04-09T12:23:03.248Z,56.60
2023-04-09T12:24:03.265Z,58.79
2023-04-09T12:25:03.237Z,57.94
2023-04-09T12:26:03.269Z,59.03
2023-04-09T12:27:03.252Z,57.44
2023-04-09T12:28:03.220Z,58.84
2023-04-09T12:29:03.202Z,58.83
2023-04-09T12:30:03.209Z,58.42
2023-04-09T12:31:03.204Z,59.13
2023-04-09T12:32:03.220Z,62.35
2023-04-09T12:33:03.275Z,59.87
2023-04-09T12:34:03.226Z,59.67
2023-04-09T12:35:03.183Z,58.53
2023-04-09T12:36:03.219Z,58.94
2023-04-09T12:37:03.150Z,57.28
2023-04-09T12:38:03.139Z,58.18
2023-04-09T12:39:03.148Z,60.20
2023-04-09T12:40:03.142Z,57.56
2023-04-09T12:41:03.142Z,58.77
2023-04-09T12:42:03.137Z,60.71
2023-04-09T12:43:03.085Z,59.14
2023-04-09T12:44:03.118Z,58.03
2023-04-09T12:45:03.109Z,56.33
2023-04-09T12:46:03.224Z,57.14
2023-04-09T12:47:03.112Z,57.05
2023-04-09T12:48:03.131Z,57.00
2023-04-09T12:49:03.049Z,57.93
2023-04-09T12:50:03.078Z,57.71
2023-04-09T12:51:03.048Z,58.73
2023-04-09T12:52:03.089Z,58.92